createdAt,value
2023-04-16T00:03:15.373Z,3.15
2023-04-16T00:10:17.397Z,3.20
2023-04-16T00:17:19.289Z,4.43
2023-04-16T00:24:23.577Z,3.10
2023-04-16T00:31:35.839Z,8.18
2023-04-16T00:38:38.252Z,2.97
2023-04-16T00:45:40.061Z,7.97
2023-04-16T00:52:42.725Z,8.98
2023-04-16T00:59:44.493Z,14.95
2023-04-16T01:06:46.316Z,7.70
2023-04-16T01:13:48.125Z,10.30
2023-04-16T01:20:51.076Z,12.38
2023-04-16T01:27:55.055Z,9.80
2023-04-16T01:34:56.895Z,7.75
2023-04-16T01:41:58.649Z,10.45
2023-04-16T01:49:01.896Z,7.25
2023-04-16T01:56:03.893Z,9.38
2023-04-16T02:03:07.571Z,7.25
2023-04-16T02:10:10.694Z,9.50
2023-04-16T02:17:12.645Z,6.72
2023-04-16T02:24:14.552Z,4.95
2023-04-16T02:31:19.768Z,10.85
2023-04-16T02:38:21.799Z,6.13
2023-04-16T02:45:23.973Z,6.50
2023-04-16T02:52:25.876Z,6.13
2023-04-16T02:59:27.608Z,10.38
2023-04-16T03:06:29.316Z,6.40
2023-04-16T03:13:31.103Z,8.15
2023-04-16T03:20:33.088Z,11.32
2023-04-16T03:27:34.979Z,7.10
2023-04-16T03:34:37.332Z,5.63
2023-04-16T03:41:39.188Z,10.68
2023-04-16T03:48:41.003Z,10.73
2023-04-16T03:55:43.158Z,5.68
2023-04-16T04:02:45.117Z,3.63
2023-04-16T04:09:46.952Z,5.30
2023-04-16T04:16:48.794Z,4.72
2023-04-16T04:23:50.739Z,4.47
2023-04-16T04:30:52.493Z,4.15
2023-04-16T04:37:54.379Z,4.85
2023-04-16T04:44:56.312Z,7.22
2023-04-16T04:51:58.109Z,4.15
2023-04-16T04:58:59.874Z,4.93
2023-04-16T05:06:01.837Z,5.85
2023-04-16T05:13:03.875Z,7.15
2023-04-16T05:20:06.410Z,7.55
2023-04-16T05:27:08.143Z,9.15
2023-04-16T05:34:09.924Z,6.07
2023-04-16T05:41:11.724Z,8.20
2023-04-16T05:48:14.107Z,8.38
2023-04-16T05:55:15.980Z,9.93
2023-04-16T06:02:17.939Z,6.82
2023-04-16T06:09:19.973Z,7.32
2023-04-16T06:16:21.741Z,7.18
2023-04-16T06:23:23.514Z,8.73
2023-04-16T06:30:27.142Z,6.35
2023-04-16T06:37:29.047Z,6.13
2023-04-16T06:44:30.926Z,7.93
2023-04-16T06:51:32.856Z,5.78
2023-04-16T06:58:34.649Z,5.55
2023-04-16T07:05:36.574Z,5.90
2023-04-16T07:12:38.369Z,6.55
2023-04-16T07:19:40.171Z,5.35
2023-04-16T07:26:42.004Z,5.53
2023-04-16T07:33:44.143Z,7.03
2023-04-16T07:40:46.279Z,8.60
2023-04-16T07:47:48.070Z,7.68
2023-04-16T07:54:49.949Z,6.80
2023-04-16T08:01:53.203Z,9.63
2023-04-16T08:08:57.722Z,9.10
2023-04-16T08:15:59.615Z,8.85
2023-04-16T08:23:01.601Z,12.13
2023-04-16T08:30:03.798Z,6.82
2023-04-16T08:37:05.705Z,9.13
2023-04-16T08:44:12.883Z,7.50
2023-04-16T08:51:14.997Z,10.32
2023-04-16T08:58:21.353Z,9.40
2023-04-16T09:05:25.975Z,14.00
2023-04-16T09:12:28.110Z,12.52
2023-04-16T09:19:29.859Z,8.95
2023-04-16T09:26:31.977Z,6.72
2023-04-16T09:33:34.982Z,7.80
2023-04-16T09:40:36.872Z,33.78
2023-04-16T09:47:40.218Z,19.30
2023-04-16T09:54:51.574Z,31.80
2023-04-16T10:02:14.544Z,21.90
2023-04-16T10:09:19.034Z,13.63
2023-04-16T10:16:22.555Z,9.38
2023-04-16T10:23:24.451Z,9.63
2023-04-16T10:30:32.045Z,9.95
2023-04-16T10:37:34.189Z,12.55
2023-04-16T10:44:36.418Z,10.55
2023-04-16T10:51:38.420Z,9.45
2023-04-16T10:58:40.204Z,9.13
2023-04-16T11:05:47.049Z,11.07
2023-04-16T11:12:49.108Z,8.23
2023-04-16T11:19:50.942Z,10.50
2023-04-16T11:26:55.848Z,10.75
2023-04-16T11:33:58.019Z,11.15
2023-04-16T11:56:55.715Z,10.15
2023-04-16T12:04:02.444Z,11.45
2023-04-16T12:11:04.830Z,10.55
2023-04-16T12:18:08.268Z,9.00
2023-04-16T12:25:18.345Z,10.77
2023-04-16T12:32:22.548Z,10.07
2023-04-16T12:39:24.289Z,8.38
2023-04-16T12:46:26.137Z,11.50
2023-04-16T12:53:28.638Z,13.25
2023-04-16T13:00:30.736Z,15.20
2023-04-16T13:07:37.823Z,13.18
2023-04-16T13:14:39.579Z,11.75
2023-04-16T13:21:41.456Z,12.10
2023-04-16T13:28:43.253Z,13.10
2023-04-16T13:35:45.350Z,12.65
2023-04-16T13:42:48.022Z,13.65
2023-04-16T13:49:49.905Z,11.15
2023-04-16T13:56:51.999Z,12.27
2023-04-16T14:03:53.896Z,13.18
2023-04-16T14:10:59.289Z,13.52
2023-04-16T14:18:02.089Z,9.60
2023-04-16T14:25:04.175Z,9.60
2023-04-16T14:32:07.768Z,12.20
2023-04-16T14:39:10.818Z,12.43
2023-04-16T14:46:13.234Z,14.15
2023-04-16T14:53:17.338Z,11.30
2023-04-16T15:00:19.748Z,9.02
2023-04-16T15:07:22.874Z,11.18
2023-04-16T15:14:25.267Z,11.18
2023-04-16T15:21:28.260Z,12.02
2023-04-16T15:28:30.318Z,11.82
2023-04-16T15:35:32.328Z,13.07
2023-04-16T15:42:35.230Z,11.05
2023-04-16T15:49:37.546Z,10.93
2023-04-16T15:56:40.195Z,12.75
2023-04-16T16:03:43.203Z,14.35
2023-04-16T16:10:45.440Z,13.38
2023-04-16T16:17:48.148Z,12.77
2023-04-16T16:24:51.597Z,13.75
2023-04-16T16:31:53.817Z,14.77
2023-04-16T16:38:57.626Z,18.98
2023-04-16T16:46:01.197Z,17.52
2023-04-16T16:53:03.907Z,18.50
2023-04-16T17:00:15.882Z,18.13
2023-04-16T17:07:17.892Z,14.82
2023-04-16T17:14:20.208Z,15.35
2023-04-16T17:21:22.617Z,14.70
2023-04-16T17:28:26.022Z,11.75
2023-04-16T17:35:28.863Z,14.55
2023-04-16T17:42:31.561Z,16.95
2023-04-16T17:49:35.781Z,23.77
2023-04-16T17:56:38.638Z,22.75
2023-04-16T18:03:41.134Z,16.05
2023-04-16T18:10:43.117Z,14.52
2023-04-16T18:17:45.154Z,13.40
2023-04-16T18:24:50.096Z,13.80
2023-04-16T18:31:58.124Z,13.13
2023-04-16T18:39:02.766Z,15.07
2023-04-16T18:46:05.573Z,20.30
2023-04-16T18:53:08.167Z,19.83
2023-04-16T19:00:15.220Z,14.77
2023-04-16T19:07:18.823Z,16.33
2023-04-16T19:14:21.600Z,13.68
2023-04-16T19:21:25.245Z,13.07
2023-04-16T19:28:28.018Z,12.82
2023-04-16T19:35:33.739Z,12.68
2023-04-16T19:42:36.358Z,13.80
2023-04-16T19:49:42.408Z,15.68
2023-04-16T19:56:45.084Z,17.40
2023-04-16T20:03:49.309Z,20.42
2023-04-16T20:10:55.348Z,25.98
2023-04-16T20:18:00.157Z,17.80
2023-04-16T20:25:03.981Z,18.58
2023-04-16T20:32:08.486Z,24.40
2023-04-16T20:39:11.305Z,22.63
2023-04-16T20:46:13.949Z,19.00
2023-04-16T20:53:16.466Z,16.15
2023-04-16T21:00:18.396Z,16.70
2023-04-16T21:07:20.195Z,16.80
2023-04-16T21:14:21.974Z,18.20
2023-04-16T21:21:24.050Z,12.38
2023-04-16T21:28:25.867Z,13.38
2023-04-16T21:35:27.715Z,10.85
2023-04-16T21:42:29.598Z,11.52
2023-04-16T21:49:31.391Z,12.98
2023-04-16T21:56:33.168Z,13.05
2023-04-16T22:03:35.036Z,11.82
2023-04-16T22:10:38.208Z,13.93
2023-04-16T22:17:40.742Z,15.48
2023-04-16T22:24:42.604Z,12.93
2023-04-16T22:31:44.577Z,15.75
2023-04-16T22:38:46.933Z,16.35
2023-04-16T22:45:48.959Z,14.68
2023-04-16T22:52:50.921Z,14.20
2023-04-16T22:59:53.415Z,13.25
2023-04-16T23:06:55.370Z,13.35
2023-04-16T23:13:57.416Z,12.65
2023-04-16T23:20:59.187Z,14.50
2023-04-16T23:28:00.922Z,14.00
2023-04-16T23:35:02.876Z,14.65
2023-04-16T23:42:04.688Z,13.45
2023-04-16T23:49:06.625Z,14.10
2023-04-16T23:56:11.375Z,12.82
